METAR Data
IDs: Format: Raw Decoded Include TAF

Data at: 1355 UTC 10 Aug 2022

KMHR 101330Z AUTO 13007KT 10SM CLR 12/11 A3001 RMK A01
KMHR 101315Z AUTO 13007KT 10SM CLR 13/11 A3000 RMK A01
KMHR 101250Z AUTO 13006KT 10SM CLR 13/12 A3000 RMK A01
KMHR 101235Z AUTO 15004KT 10SM CLR 14/12 A2999 RMK A01
KMHR 101215Z AUTO 15004KT 10SM CLR 15/13 A2999 RMK A01
KMHR 101155Z AUTO 15006KT 10SM CLR 15/13 A2999 RMK A01
KMHR 101135Z AUTO 15004KT 10SM CLR 15/13 A2999 RMK A01
KMHR 101110Z AUTO 15006KT 10SM CLR 15/13 A2999 RMK A01
KMHR 101055Z AUTO 15007KT 10SM CLR 15/13 A2998 RMK A01
KMHR 101035Z AUTO 14006KT 10SM CLR 14/13 A2999 RMK A01
KMHR 101015Z AUTO 14007KT 10SM CLR 14/12 A2999 RMK A01
KMHR 100955Z AUTO 13007KT 10SM CLR 14/12 A2999 RMK A01
KMHR 100935Z AUTO 13007KT 10SM CLR 14/12 A2998 RMK A01
KMHR 100915Z AUTO 14007KT 10SM CLR 14/12 A2998 RMK A01
KMHR 100855Z AUTO 13007KT 10SM CLR 15/12 A2998 RMK A01
KMHR 100835Z AUTO 14007KT 10SM CLR 15/12 A2998 RMK A01
KMHR 100810Z AUTO 13008KT 10SM CLR 15/12 A2998 RMK A01
KMHR 100755Z AUTO 13007KT 10SM CLR 15/12 A2998 RMK A01
KMHR 100730Z AUTO 14007KT 10SM CLR 15/12 A2998 RMK A01
KMHR 100715Z AUTO 13006KT 10SM CLR 16/12 A2998 RMK A01
KMHR 100650Z AUTO 15004KT 10SM CLR 16/12 A2998 RMK A01
KMHR 100635Z AUTO 15004KT 10SM CLR 17/12 A2998 RMK A01
KMHR 100615Z AUTO 18006KT 10SM CLR 18/12 A2997 RMK A01
KMHR 100555Z AUTO 15005KT 10SM CLR 19/12 A2997 RMK A01
KMHR 100535Z AUTO 21008G15KT 10SM CLR 20/12 A2996 RMK A01
KMHR 100515Z AUTO 22015KT 10SM CLR 20/11 A2995 RMK A01
KMHR 100455Z AUTO 22009KT 10SM CLR 21/11 A2995 RMK A01
KMHR 100430Z AUTO 19007KT 10SM CLR 21/10 A2994 RMK A01
KMHR 100415Z AUTO 18007KT 10SM CLR 21/10 A2993 RMK A01
KMHR 100350Z AUTO 19009KT 10SM CLR 22/10 A2992 RMK A01
KMHR 100335Z AUTO 18008KT 10SM CLR 22/10 A2992 RMK A01
KMHR 100310Z AUTO 21014KT 10SM CLR 24/10 A2991 RMK A01
KMHR 100255Z AUTO 22013KT 10SM CLR 25/09 A2991 RMK A01
KMHR 100230Z AUTO 21013KT 10SM CLR 26/09 A2990 RMK A01
KMHR 100215Z AUTO 22011KT 10SM CLR 27/08 A2990 RMK A01
KMHR 100155Z AUTO 22014KT 10SM CLR 28/08 A2989 RMK A01
KMHR 100130Z AUTO 22013KT 10SM CLR 29/10 A2989 RMK A01
KMHR 100110Z AUTO 23014KT 10SM CLR 29/09 A2989 RMK A01
KMHR 100055Z AUTO 24013KT 10SM CLR 30/10 A2989 RMK A01
KMHR 100035Z AUTO 23011KT 10SM CLR 31/09 A2988 RMK A01
KMHR 100015Z AUTO 23011KT 10SM CLR 31/09 A2988 RMK A01
KMHR 092350Z 24011KT 10SM SCT200 31/09 A2988 RMK A01
KMHR 092335Z 22009G15KT 10SM SCT200 32/09 A2988 RMK A01
KMHR 092315Z AUTO 21008G15KT 10SM CLR 32/09 A2988 RMK A01
KMHR 092255Z 22009G15KT 10SM SCT200 32/08 A2989 RMK A01
KMHR 092235Z 22011G18KT 10SM SCT200 31/08 A2989 RMK A01
KMHR 092215Z AUTO 22010G15KT 10SM CLR 31/08 A2989 RMK A01
KMHR 092150Z AUTO 22009G15KT 10SM CLR 31/08 A2990 RMK A01 LTG DSNT N
KMHR 092135Z AUTO 21011KT 10SM FEW120 30/09 A2990 RMK A01
KMHR 092110Z AUTO 20006G12KT 10SM FEW120 30/09 A2991 RMK A01
KMHR 092055Z AUTO 21010KT 10SM CLR 30/09 A2991 RMK A01
KMHR 092035Z AUTO 22007G15KT 10SM CLR 29/10 A2992 RMK A01
KMHR 092015Z AUTO 22011G16KT 180V240 10SM CLR 29/10 A2992 RMK A01
KMHR 091955Z 22006G13KT 10SM BKN200 28/10 A2993 RMK A01
KMHR 091930Z 22006G13KT 10SM BKN200 27/12 A2993 RMK A01
KMHR 091915Z AUTO 20008G13KT 10SM CLR 27/12 A2993 RMK A01
KMHR 091850Z AUTO 19007G13KT 150V240 10SM CLR 25/12 A2994 RMK A01
KMHR 091835Z AUTO 19008KT 10SM CLR 25/13 A2994 RMK A01
KMHR 091810Z AUTO 16008KT 10SM FEW110 24/13 A2994 RMK A01
KMHR 091755Z AUTO 21007KT 170V230 10SM FEW110 23/13 A2994 RMK A01
KMHR 091730Z AUTO 19009KT 10SM SCT110 23/13 A2994 RMK A01
KMHR 091715Z AUTO 18007KT 10SM SCT110 22/13 A2994 RMK A01
KMHR 091655Z AUTO 18008KT 10SM SCT110 21/13 A2995 RMK A01
KMHR 091645Z E17007G12KT 10SM BKN200 20/13 A2995
KMHR 091635Z AUTO 18009KT 10SM FEW110 20/13 A2994 RMK A01
KMHR 091615Z AUTO 19008KT 10SM CLR 20/13 A2995 RMK A01
KMHR 091550Z AUTO 18009KT 10SM CLR 20/13 A2995 RMK A01
KMHR 091535Z AUTO 18006KT 10SM CLR 19/13 A2994 RMK A01
KMHR 091510Z AUTO 16009KT 10SM CLR 18/13 A2994 RMK A01
KMHR 091455Z 17010KT 10SM BKN200 18/13 A2994 RMK A01
KMHR 091445Z E17007G14KT 10SM BKN200 18/13 A2993
KMHR 091430Z AUTO 18009KT 10SM CLR 18/13 A2993 RMK A01
KMHR 091415Z AUTO 18008KT 10SM CLR 18/13 A2993 RMK A01
KMHR 091350Z 17007KT 10SM BKN200 17/14 A2993 RMK A01
KMHR 091345Z E16007KT 10SM BKN200 17/13 A2992
KMHR 091335Z AUTO 16007KT 10SM CLR 17/14 A2992 RMK A01
KMHR 091310Z AUTO 14007KT 10SM CLR 16/13 A2992 RMK A01
KMHR 091255Z 13007KT 10SM BKN200 16/13 A2991 RMK A01
KMHR 091245Z E13007KT 10SM BKN200 17/13 A2991
KMHR 091235Z 15007KT 10SM BKN200 17/13 A2991 RMK A01
KMHR 091215Z 15007KT 10SM BKN200 17/13 A2990 RMK A01
KMHR 091155Z AUTO 15007KT 10SM CLR 17/13 A2990 RMK A01
KMHR 091154Z E15007KT 10SM BKN200 17/13 A2990
KMHR 091135Z AUTO 15005KT 10SM CLR 17/13 A2990 RMK A01
KMHR 091110Z AUTO 16007KT 10SM CLR 18/13 A2990 RMK A01
KMHR 091050Z AUTO 15007KT 10SM CLR 18/13 A2990 RMK A01
KMHR 091035Z AUTO 16008KT 10SM CLR 18/13 A2990 RMK A01
KMHR 091010Z AUTO 16007KT 10SM CLR 18/13 A2989 RMK A01
KMHR 090955Z AUTO 17009KT 10SM CLR 19/13 A2989 RMK A01
KMHR 090930Z AUTO 16006KT 10SM CLR 19/13 A2989 RMK A01
KMHR 090915Z AUTO 17008KT 10SM CLR 19/13 A2989 RMK A01
KMHR 090855Z AUTO 17009KT 10SM CLR 18/13 A2990 RMK A01
KMHR 090830Z AUTO 16007KT 10SM CLR 18/13 A2990 RMK A01
KMHR 090815Z AUTO 16007KT 10SM CLR 19/12 A2990 RMK A01
KMHR 090750Z AUTO 16007KT 10SM CLR 19/12 A2990 RMK A01
KMHR 090735Z AUTO 16009KT 10SM CLR 19/12 A2990 RMK A01
KMHR 090715Z AUTO 15007KT 10SM CLR 19/12 A2990 RMK A01
KMHR 090655Z AUTO 15008KT 10SM CLR 20/12 A2990 RMK A01
KMHR 090635Z AUTO 16007KT 10SM CLR 20/12 A2989 RMK A01
KMHR 090615Z AUTO 15006KT 10SM CLR 20/11 A2990 RMK A01
KMHR 090555Z AUTO 18006KT 10SM CLR 21/11 A2990 RMK A01
KMHR 090530Z AUTO 20007KT 10SM CLR 22/11 A2990 RMK A01
KMHR 090515Z AUTO 18006KT 10SM CLR 23/11 A2990 RMK A01
KMHR 090450Z AUTO 19008KT 10SM CLR 23/11 A2989 RMK A01
KMHR 090435Z AUTO 20008KT 10SM CLR 23/11 A2988 RMK A01
KMHR 090410Z AUTO 22008KT 10SM CLR 24/10 A2988 RMK A01
KMHR 090355Z AUTO 21009KT 10SM CLR 25/11 A2988 RMK A01
KMHR 090330Z AUTO 20009KT 10SM CLR 25/12 A2987 RMK A01
KMHR 090315Z AUTO 20009KT 10SM CLR 26/12 A2987 RMK A01
KMHR 090255Z 21008KT 10SM SCT150 27/11 A2987 RMK A01
KMHR 090235Z 22009KT 10SM SCT150 28/11 A2986 RMK A01
KMHR 090215Z 21009KT 10SM SCT150 29/11 A2985 RMK A01